Dai Shan Hai — 3FDE6 — position and weather

sailwx.info

Track history (hours):
 
Tides and Currents Weather Stations Pressure Air Temp Water Temp Dewpoint Dewpoint Depression Visibility Wind Speed Wind Dir Waves Ship Positions

Dai Shan Hai

Last reported at 2018-Jul-14 15:58 UTC. Time now 2018-Jul-16 14:31 UTC.
Position N 01°22' E 104°49'.

Length 190 m; draft 7.3 m.

Type: Cargo ship. MMSI: 371911000.

Date/timePositionNaut miles runAvg speedWind from/ knotsBaromVisibWave heightAir tempDewpointWater temp
2018-Jul-14 15:58N 01°22' E 104°49'1612.7
2018-Jul-14 14:40N 01°24' E 104°32'912.0
2018-Jul-14 13:56N 01°21' E 104°24'512.2
2018-Jul-14 13:29N 01°17' E 104°20'611.5
2018-Jul-14 12:59N 01°16' E 104°14'611.9
2018-Jul-14 12:28N 01°15' E 104°08'611.9
2018-Jul-14 11:57N 01°14' E 104°02'512.0
2018-Jul-14 11:30N 01°13' E 103°57'611.8
2018-Jul-14 11:00N 01°11' E 103°51'611.3
2018-Jul-14 10:30N 01°08' E 103°46'612.1
2018-Jul-14 10:01N 01°04' E 103°42'611.7
2018-Jul-14 09:30N 01°04' E 103°36'612.2
2018-Jul-14 09:00N 01°07' E 103°31'712.9
2018-Jul-14 08:30N 01°10' E 103°25'612.6
2018-Jul-14 07:59N 01°15' E 103°21'613.1
2018-Jul-14 07:30N 01°19' E 103°16'  
2018-Jul-08 05:06N 01°30' E 103°08'114.5
2018-Jul-08 05:01N 01°29' E 103°09'814.2
2018-Jul-08 04:25N 01°23' E 103°15'614.2
2018-Jul-08 03:59N 01°19' E 103°20'714.6
2018-Jul-08 03:30N 01°14' E 103°25'714.1
2018-Jul-08 02:59N 01°13' E 103°32'713.6
2018-Jul-08 02:30N 01°11' E 103°38'612.8
2018-Jul-08 02:00N 01°08' E 103°44'612.2
2018-Jul-08 01:30N 01°11' E 103°49'612.3
2018-Jul-08 01:00N 01°14' E 103°55'3 4.7
2018-Jul-08 00:20N 01°17' E 103°57'0 0.1
2018-Jul-07 23:47N 01°17' E 103°57'0 0.0
2018-Jul-07 23:28N 01°17' E 103°57'0 0.0
2018-Jul-07 22:58N 01°17' E 103°57'0 0.0
2018-Jul-07 22:26N 01°17' E 103°57'0 0.0
2018-Jul-07 21:59N 01°17' E 103°57'0 0.0
2018-Jul-07 21:26N 01°17' E 103°57'0 0.0
2018-Jul-07 20:53N 01°17' E 103°57'0 0.0
2018-Jul-07 20:20N 01°17' E 103°57'0 0.0
2018-Jul-07 19:56N 01°17' E 103°57'0 0.1
2018-Jul-07 19:14N 01°17' E 103°57'0 0.0
2018-Jul-07 18:59N 01°17' E 103°57'0 0.0
2018-Jul-07 18:16N 01°17' E 103°57'0 0.0
2018-Jul-07 17:58N 01°17' E 103°57'0 0.0
2018-Jul-07 17:29N 01°17' E 103°57'0 0.0
2018-Jul-07 16:58N 01°16' E 103°57'0 0.1
2018-Jul-07 16:26N 01°16' E 103°57'0 0.0
2018-Jul-07 15:53N 01°16' E 103°57'0 0.0
2018-Jul-07 15:23N 01°16' E 103°57'0 0.2
2018-Jul-07 14:59N 01°16' E 103°57'0 0.0
2018-Jul-07 14:29N 01°17' E 103°57'0 0.1
2018-Jul-07 13:56N 01°17' E 103°57'0 0.0
2018-Jul-07 13:26N 01°17' E 103°57'0 0.0
2018-Jul-07 12:53N 01°17' E 103°57'0 0.0
2018-Jul-07 12:29N 01°17' E 103°57'0 0.1
2018-Jul-07 11:59N 01°17' E 103°56'0 0.0
2018-Jul-07 11:29N 01°17' E 103°56'0 0.1
2018-Jul-07 10:59N 01°17' E 103°57'0 0.0
2018-Jul-07 10:14N 01°17' E 103°57'0 0.3
2018-Jul-07 09:53N 01°16' E 103°56'0 0.1
2018-Jul-07 09:29N 01°17' E 103°56'0 0.1
2018-Jul-07 08:59N 01°17' E 103°57'0 0.1
2018-Jul-07 08:28N 01°17' E 103°57'0 0.2
2018-Jul-07 07:55N 01°17' E 103°56'0 0.0
2018-Jul-07 07:28N 01°17' E 103°56'0 0.1
2018-Jul-07 06:55N 01°17' E 103°57'0 0.0
2018-Jul-07 06:29N 01°17' E 103°57'0 0.0
2018-Jul-07 05:40N 01°17' E 103°57'0 0.0
2018-Jul-07 05:22N 01°17' E 103°57'0 0.0
2018-Jul-07 04:55N 01°17' E 103°57'0 0.1
2018-Jul-07 04:28N 01°17' E 103°57'1 2.7
2018-Jul-07 04:01N 01°17' E 103°58'2 3.9
2018-Jul-07 03:30N 01°16' E 103°60'1 2.7
2018-Jul-07 03:00N 01°16' E 104°01'4 7.2
2018-Jul-07 02:30N 01°17' E 104°05'3 5.9
2018-Jul-07 02:00N 01°17' E 104°08'611.6
2018-Jul-07 01:26N 01°17' E 104°14'512.0
2018-Jul-07 01:00N 01°19' E 104°19'711.6
2018-Jul-07 00:24N 01°23' E 104°25'512.0
2018-Jul-06 23:59N 01°27' E 104°28'  
Track history (hours):
 
Tides and Currents Weather Stations Pressure Air Temp Water Temp Dewpoint Dewpoint Depression Visibility Wind Speed Wind Dir Waves Ship Positions

Dai Shan Hai

Last reported at 2018-Jul-14 15:58 UTC. Time now 2018-Jul-16 14:31 UTC.
Position N 01°22' E 104°49'.

Length 190 m; draft 7.3 m.

Type: Cargo ship. MMSI: 371911000.

Date/timePositionNaut miles runAvg speedWind from/ knotsBaromVisibWave heightAir tempDewpointWater temp
2018-Jul-14 15:58N 01°22' E 104°49'1612.7
2018-Jul-14 14:40N 01°24' E 104°32'912.0
2018-Jul-14 13:56N 01°21' E 104°24'512.2
2018-Jul-14 13:29N 01°17' E 104°20'611.5
2018-Jul-14 12:59N 01°16' E 104°14'611.9
2018-Jul-14 12:28N 01°15' E 104°08'611.9
2018-Jul-14 11:57N 01°14' E 104°02'512.0
2018-Jul-14 11:30N 01°13' E 103°57'611.8
2018-Jul-14 11:00N 01°11' E 103°51'611.3
2018-Jul-14 10:30N 01°08' E 103°46'612.1
2018-Jul-14 10:01N 01°04' E 103°42'611.7
2018-Jul-14 09:30N 01°04' E 103°36'612.2
2018-Jul-14 09:00N 01°07' E 103°31'712.9
2018-Jul-14 08:30N 01°10' E 103°25'612.6
2018-Jul-14 07:59N 01°15' E 103°21'613.1
2018-Jul-14 07:30N 01°19' E 103°16'  
2018-Jul-08 05:06N 01°30' E 103°08'114.5
2018-Jul-08 05:01N 01°29' E 103°09'814.2
2018-Jul-08 04:25N 01°23' E 103°15'614.2
2018-Jul-08 03:59N 01°19' E 103°20'714.6
2018-Jul-08 03:30N 01°14' E 103°25'714.1
2018-Jul-08 02:59N 01°13' E 103°32'713.6
2018-Jul-08 02:30N 01°11' E 103°38'612.8
2018-Jul-08 02:00N 01°08' E 103°44'612.2
2018-Jul-08 01:30N 01°11' E 103°49'612.3
2018-Jul-08 01:00N 01°14' E 103°55'3 4.7
2018-Jul-08 00:20N 01°17' E 103°57'0 0.1
2018-Jul-07 23:47N 01°17' E 103°57'0 0.0
2018-Jul-07 23:28N 01°17' E 103°57'0 0.0
2018-Jul-07 22:58N 01°17' E 103°57'0 0.0
2018-Jul-07 22:26N 01°17' E 103°57'0 0.0
2018-Jul-07 21:59N 01°17' E 103°57'0 0.0
2018-Jul-07 21:26N 01°17' E 103°57'0 0.0
2018-Jul-07 20:53N 01°17' E 103°57'0 0.0
2018-Jul-07 20:20N 01°17' E 103°57'0 0.0
2018-Jul-07 19:56N 01°17' E 103°57'0 0.1
2018-Jul-07 19:14N 01°17' E 103°57'0 0.0
2018-Jul-07 18:59N 01°17' E 103°57'0 0.0
2018-Jul-07 18:16N 01°17' E 103°57'0 0.0
2018-Jul-07 17:58N 01°17' E 103°57'0 0.0
2018-Jul-07 17:29N 01°17' E 103°57'0 0.0
2018-Jul-07 16:58N 01°16' E 103°57'0 0.1
2018-Jul-07 16:26N 01°16' E 103°57'0 0.0
2018-Jul-07 15:53N 01°16' E 103°57'0 0.0
2018-Jul-07 15:23N 01°16' E 103°57'0 0.2
2018-Jul-07 14:59N 01°16' E 103°57'0 0.0
2018-Jul-07 14:29N 01°17' E 103°57'0 0.1
2018-Jul-07 13:56N 01°17' E 103°57'0 0.0
2018-Jul-07 13:26N 01°17' E 103°57'0 0.0
2018-Jul-07 12:53N 01°17' E 103°57'0 0.0
2018-Jul-07 12:29N 01°17' E 103°57'0 0.1
2018-Jul-07 11:59N 01°17' E 103°56'0 0.0
2018-Jul-07 11:29N 01°17' E 103°56'0 0.1
2018-Jul-07 10:59N 01°17' E 103°57'0 0.0
2018-Jul-07 10:14N 01°17' E 103°57'0 0.3
2018-Jul-07 09:53N 01°16' E 103°56'0 0.1
2018-Jul-07 09:29N 01°17' E 103°56'0 0.1
2018-Jul-07 08:59N 01°17' E 103°57'0 0.1
2018-Jul-07 08:28N 01°17' E 103°57'0 0.2
2018-Jul-07 07:55N 01°17' E 103°56'0 0.0
2018-Jul-07 07:28N 01°17' E 103°56'0 0.1
2018-Jul-07 06:55N 01°17' E 103°57'0 0.0
2018-Jul-07 06:29N 01°17' E 103°57'0 0.0
2018-Jul-07 05:40N 01°17' E 103°57'0 0.0
2018-Jul-07 05:22N 01°17' E 103°57'0 0.0
2018-Jul-07 04:55N 01°17' E 103°57'0 0.1
2018-Jul-07 04:28N 01°17' E 103°57'1 2.7
2018-Jul-07 04:01N 01°17' E 103°58'2 3.9
2018-Jul-07 03:30N 01°16' E 103°60'1 2.7
2018-Jul-07 03:00N 01°16' E 104°01'4 7.2
2018-Jul-07 02:30N 01°17' E 104°05'3 5.9
2018-Jul-07 02:00N 01°17' E 104°08'611.6
2018-Jul-07 01:26N 01°17' E 104°14'512.0
2018-Jul-07 01:00N 01°19' E 104°19'711.6
2018-Jul-07 00:24N 01°23' E 104°25'512.0
2018-Jul-06 23:59N 01°27' E 104°28'  

Dump ship's entire track history